Time;durP1;ratioP1;P1;durP2;ratioP2;P2;SDS_P1;SDS_P2;PMS_P1;PMS_P2;Temp;Humidity;BMP_temperature;BMP_pressure;BME280_temperature;BME280_humidity;BME280_pressure;Samples;Min_cycle;Max_cycle;Signal;HPM_P1;HPM_P2
2020/12/08 00:02:21;;;;;;;86.47;35.72;;;;;;;5.36;69.68;100288.94;5036307;28;20032;-85
2020/12/08 00:04:47;;;;;;;78.28;32.22;;;;;;;5.42;69.83;100286.28;5023486;28;20034;-84
2020/12/08 00:07:14;;;;;;;81.00;35.83;;;;;;;5.42;69.57;100283.63;5036703;28;20048;-84
2020/12/08 00:09:40;;;;;;;89.18;35.47;;;;;;;5.43;69.60;100284.50;5036431;28;20033;-85
2020/12/08 00:12:07;;;;;;;75.10;33.85;;;;;;;5.47;69.66;100281.84;5036370;28;20057;-84
2020/12/08 00:14:34;;;;;;;84.43;35.58;;;;;;;5.49;69.65;100282.69;5035964;28;20387;-85
2020/12/08 00:17:02;;;;;;;73.35;32.20;;;;;;;5.51;69.70;100283.56;5036303;28;20065;-85
2020/12/08 00:19:29;;;;;;;73.63;32.67;;;;;;;5.55;69.51;100289.66;5016701;28;20030;-85
2020/12/08 00:21:56;;;;;;;75.55;31.13;;;;;;;5.55;69.46;100286.16;5016358;28;20029;-84
2020/12/08 00:24:22;;;;;;;76.57;31.25;;;;;;;5.57;69.47;100287.00;5016526;28;20030;-87
2020/12/08 00:26:49;;;;;;;76.57;32.67;;;;;;;5.53;69.55;100280.91;5016447;28;20018;-84
2020/12/08 00:29:15;;;;;;;72.85;31.63;;;;;;;5.54;69.66;100289.69;5016379;28;20054;-86
2020/12/08 00:31:42;;;;;;;81.00;32.63;;;;;;;5.49;69.65;100282.69;5030503;28;20122;-85
2020/12/08 00:34:08;;;;;;;75.07;32.78;;;;;;;5.50;69.84;100286.19;5034288;28;20049;-85
2020/12/08 00:36:35;;;;;;;83.97;32.95;;;;;;;5.55;69.71;100289.66;5034740;28;20033;-85
2020/12/08 00:39:01;;;;;;;79.45;34.58;;;;;;;5.49;69.59;100290.56;5035996;28;20026;-85
2020/12/08 00:41:28;;;;;;;79.75;34.30;;;;;;;5.48;69.66;100283.59;5036019;28;20025;-86
2020/12/08 00:43:54;;;;;;;71.22;31.23;;;;;;;5.53;69.25;100282.66;5035809;28;20040;-85
2020/12/08 00:46:21;;;;;;;73.68;33.60;;;;;;;5.52;69.63;100292.31;5036082;28;20021;-85
2020/12/08 00:48:48;;;;;;;74.13;32.88;;;;;;;5.53;69.42;100293.19;5035534;28;20476;-85
2020/12/08 00:51:14;;;;;;;74.22;34.00;;;;;;;5.47;69.61;100299.34;5035819;28;20354;-86
2020/12/08 00:53:41;;;;;;;69.38;32.08;;;;;;;5.48;69.66;100299.34;5035552;28;20083;-85
2020/12/08 00:56:10;;;;;;;65.00;31.27;;;;;;;5.52;69.45;100302.84;5035549;28;20036;-85
2020/12/08 00:58:37;;;;;;;64.85;30.00;;;;;;;5.48;69.58;100296.72;5029794;28;20042;-85
2020/12/08 01:01:05;;;;;;;65.82;31.17;;;;;;;5.47;69.57;100304.59;5028355;28;20036;-85
2020/12/08 01:03:32;;;;;;;64.82;31.65;;;;;;;5.41;69.92;100302.91;5029638;28;20132;-86
2020/12/08 01:06:00;;;;;;;66.40;30.77;;;;;;;5.44;69.75;100310.75;5015849;28;20079;-87
2020/12/08 01:08:27;;;;;;;64.55;29.63;;;;;;;5.45;69.64;100309.00;5015429;28;20543;-84
2020/12/08 01:10:54;;;;;;;68.25;29.98;;;;;;;5.48;69.56;100315.13;5015482;28;20026;-85
2020/12/08 01:13:21;;;;;;;63.28;29.77;;;;;;;5.51;69.66;100315.09;5015711;28;20076;-85
2020/12/08 01:15:48;;;;;;;69.10;30.75;;;;;;;5.43;69.82;100311.66;5015610;28;20474;-87
2020/12/08 01:18:15;;;;;;;53.72;27.17;;;;;;;5.45;69.67;100312.50;5018930;28;20040;-84
2020/12/08 01:32:50;;;;;;;61.13;28.60;;;;;;;5.50;69.68;100313.34;5014987;28;20374;-85
2020/12/08 01:35:18;;;;;;;55.15;27.67;;;;;;;5.50;69.45;100310.72;5015011;28;20026;-83
2020/12/08 01:37:46;;;;;;;63.50;30.45;;;;;;;5.49;69.74;100308.97;5015169;28;20034;-84
2020/12/08 01:40:12;;;;;;;67.13;30.35;;;;;;;5.50;69.38;100313.34;5028412;28;20108;-84
2020/12/08 01:42:39;;;;;;;62.20;30.77;;;;;;;5.50;69.66;100308.06;5027234;28;20053;-84
2020/12/08 01:45:06;;;;;;;57.63;28.58;;;;;;;5.51;69.39;100315.09;5034645;28;20025;-85
2020/12/08 01:47:34;;;;;;;58.92;29.27;;;;;;;5.44;69.55;100318.63;5014840;28;20047;-84
2020/12/08 01:50:01;;;;;;;62.30;28.98;;;;;;;5.41;69.51;100317.78;5015351;28;20026;-83
2020/12/08 01:52:28;;;;;;;57.90;29.30;;;;;;;5.38;69.46;100326.56;5014747;28;20116;-85
2020/12/08 01:54:55;;;;;;;67.93;30.67;;;;;;;5.39;69.42;100319.56;5013895;28;20037;-82
2020/12/08 01:57:21;;;;;;;63.80;29.67;;;;;;;5.32;69.87;100322.25;5014615;28;20477;-84
2020/12/08 01:59:48;;;;;;;58.40;28.63;;;;;;;5.31;69.79;100327.50;5014388;28;20037;-84
2020/12/08 02:02:14;;;;;;;59.90;27.63;;;;;;;5.30;69.83;100320.50;5014941;28;20034;-85
2020/12/08 02:04:41;;;;;;;60.55;27.45;;;;;;;5.27;69.71;100328.38;5015476;28;20105;-85
2020/12/08 02:07:07;;;;;;;61.80;29.02;;;;;;;5.27;69.54;100323.13;5014451;28;20096;-85
2020/12/08 02:09:36;;;;;;;64.78;28.73;;;;;;;5.27;69.59;100320.50;5022185;28;20520;-87
2020/12/08 02:12:04;;;;;;;56.17;27.50;;;;;;;5.24;70.06;100328.44;5027976;28;20465;-87
2020/12/08 02:14:31;;;;;;;67.43;31.30;;;;;;;5.26;69.59;100324.00;5035369;28;20091;-84
2020/12/08 02:16:57;;;;;;;52.78;26.92;;;;;;;5.29;69.74;100334.50;5034434;28;20091;-86
2020/12/08 02:19:24;;;;;;;62.75;28.80;;;;;;;5.26;69.85;100335.41;5020986;28;20116;-84
2020/12/08 02:21:50;;;;;;;64.88;29.80;;;;;;;5.26;69.85;100334.53;5021711;28;20041;-84
2020/12/08 02:24:18;;;;;;;59.15;28.80;;;;;;;5.26;69.57;100327.53;5030432;28;20033;-86
2020/12/08 02:26:46;;;;;;;64.05;31.50;;;;;;;5.25;69.76;100328.41;5021197;28;20092;-85
2020/12/08 02:29:12;;;;;;;58.22;28.05;;;;;;;5.22;69.60;100330.19;5012692;28;20030;-87
2020/12/08 02:31:39;;;;;;;67.75;30.48;;;;;;;5.22;69.90;100322.28;5013026;28;20129;-85
2020/12/08 02:34:07;;;;;;;60.30;30.50;;;;;;;5.20;69.36;100319.69;5012700;28;20397;-88
2020/12/08 02:36:34;;;;;;;55.40;29.42;;;;;;;5.16;69.30;100318.84;5029541;28;20033;-85
2020/12/08 02:39:00;;;;;;;61.60;28.92;;;;;;;5.13;69.79;100312.72;5033607;28;20076;-85
2020/12/08 02:41:27;;;;;;;58.92;29.20;;;;;;;5.10;69.88;100311.00;5032363;28;20033;-84
2020/12/08 02:43:53;;;;;;;54.20;27.10;;;;;;;5.07;69.63;100310.13;5014715;28;20034;-85
2020/12/08 02:46:22;;;;;;;58.15;30.00;;;;;;;5.04;69.55;100308.41;5021955;28;20084;-84
2020/12/08 02:48:48;;;;;;;58.35;28.55;;;;;;;5.00;69.49;100309.31;5033018;28;20085;-85
2020/12/08 02:51:18;;;;;;;54.70;27.60;;;;;;;4.93;69.78;100315.47;5020102;28;20851;-85
2020/12/08 02:53:45;;;;;;;64.10;28.17;;;;;;;4.87;69.59;100321.59;5014246;28;20026;-85
2020/12/08 02:56:12;;;;;;;52.58;26.75;;;;;;;4.79;69.61;100323.41;5013989;28;20034;-84
2020/12/08 02:58:38;;;;;;;59.05;28.73;;;;;;;4.72;69.55;100322.56;5021649;28;20512;-84
2020/12/08 03:01:05;;;;;;;54.53;26.30;;;;;;;4.67;69.38;100311.22;5033559;28;20030;-84
2020/12/08 03:03:32;;;;;;;57.05;28.38;;;;;;;4.62;69.16;100320.84;5028070;28;20049;-84
2020/12/08 03:06:10;;;;;;;50.92;26.33;;;;;;;4.61;68.94;100313.84;5013840;28;20041;-83
2020/12/08 03:08:46;;;;;;;51.67;26.60;;;;;;;4.50;69.01;100309.53;5023888;28;20030;-84
2020/12/08 03:11:16;;;;;;;56.25;26.63;;;;;;;4.44;69.21;100312.19;5032986;28;20481;-83
2020/12/08 03:13:45;;;;;;;52.83;26.38;;;;;;;4.36;69.22;100314.84;5033555;28;20455;-86
2020/12/08 03:16:17;;;;;;;49.65;23.85;;;;;;;4.31;69.08;100326.19;5027026;28;20042;-86
2020/12/08 03:18:44;;;;;;;47.25;24.83;;;;;;;4.20;68.70;100328.88;5032973;28;20392;-86
2020/12/08 03:21:10;;;;;;;50.20;24.75;;;;;;;4.12;68.48;100325.38;5033794;28;20346;-86
2020/12/08 03:23:37;;;;;;;55.95;26.58;;;;;;;4.06;68.93;100326.25;5036130;28;20052;-85
2020/12/08 03:26:03;;;;;;;53.28;24.55;;;;;;;3.98;68.64;100317.53;5029582;28;20133;-85
2020/12/08 03:28:34;;;;;;;56.45;26.58;;;;;;;3.97;68.75;100318.41;5029513;28;20022;-85
2020/12/08 03:31:00;;;;;;;54.28;27.25;;;;;;;3.88;69.06;100330.63;5028075;28;20428;-84
2020/12/08 03:33:27;;;;;;;54.35;27.02;;;;;;;3.83;69.03;100329.78;5013621;28;20033;-87
2020/12/08 03:35:53;;;;;;;54.63;26.13;;;;;;;3.79;68.94;100332.38;5018372;28;20503;-84
2020/12/08 03:38:20;;;;;;;48.53;25.83;;;;;;;3.74;69.09;100335.03;5017342;28;20049;-85
2020/12/08 03:40:48;;;;;;;55.25;27.23;;;;;;;3.71;68.95;100330.66;5013522;28;20081;-84
2020/12/08 03:43:14;;;;;;;60.28;27.35;;;;;;;3.71;69.53;100335.91;5013723;28;20030;-87
2020/12/08 03:45:41;;;;;;;59.80;26.95;;;;;;;3.73;69.40;100333.28;5017075;28;20026;-85
2020/12/08 03:48:07;;;;;;;58.80;27.58;;;;;;;3.73;69.63;100328.03;5016421;28;20068;-84
2020/12/08 03:50:33;;;;;;;60.75;28.40;;;;;;;3.76;69.68;100333.25;5013447;28;20065;-85
2020/12/08 03:53:00;;;;;;;64.15;30.15;;;;;;;3.80;69.80;100329.78;5028460;28;20061;-85
2020/12/08 03:55:26;;;;;;;66.88;29.63;;;;;;;3.82;69.93;100330.63;5013375;28;20065;-85
2020/12/08 03:57:52;;;;;;;72.50;32.03;;;;;;;3.88;70.40;100333.25;5013435;28;20041;-84
2020/12/08 04:00:18;;;;;;;72.50;31.98;;;;;;;3.94;70.55;100342.00;5011757;28;20497;-86
2020/12/08 04:02:45;;;;;;;73.35;31.60;;;;;;;4.02;71.01;100342.88;5012877;28;20500;-85
2020/12/08 04:05:11;;;;;;;62.92;27.27;;;;;;;4.08;71.14;100334.13;5013346;28;20369;-85
2020/12/08 04:07:38;;;;;;;68.68;31.92;;;;;;;4.15;71.18;100346.31;5013141;28;20030;-87
2020/12/08 04:10:04;;;;;;;66.97;31.48;;;;;;;4.22;71.13;100348.06;5016473;28;20030;-88
2020/12/08 04:12:31;;;;;;;88.93;34.97;;;;;;;4.28;71.06;100352.44;5052207;28;20407;-85
2020/12/08 04:14:57;;;;;;;67.00;28.92;;;;;;;4.34;71.10;100347.19;5036461;28;20048;-86
2020/12/08 04:17:23;;;;;;;67.93;31.40;;;;;;;4.39;70.76;100353.28;5036707;28;20480;-85
2020/12/08 04:19:50;;;;;;;77.50;31.80;;;;;;;4.44;70.99;100351.53;5044594;28;20065;-88
2020/12/08 04:22:16;;;;;;;76.22;33.88;;;;;;;4.46;71.18;100347.16;5026028;28;20025;-85
2020/12/08 04:24:42;;;;;;;78.00;35.88;;;;;;;4.51;71.45;100350.63;5024977;28;20021;-85
2020/12/08 04:27:09;;;;;;;83.43;35.92;;;;;;;4.55;70.75;100346.25;5026692;28;20025;-86
2020/12/08 04:29:35;;;;;;;84.45;37.50;;;;;;;4.58;71.01;100351.47;5025054;28;20485;-85
2020/12/08 04:32:01;;;;;;;83.15;34.70;;;;;;;4.62;70.91;100353.22;5024952;28;20025;-85
2020/12/08 04:34:28;;;;;;;88.80;38.65;;;;;;;4.66;71.23;100351.44;5023211;28;20511;-84
2020/12/08 04:36:54;;;;;;;78.05;33.30;;;;;;;4.65;70.93;100350.59;5017138;28;20065;-85
2020/12/08 04:39:20;;;;;;;75.65;34.58;;;;;;;4.67;70.88;100343.59;5024491;28;20108;-85
2020/12/08 04:41:47;;;;;;;69.53;32.90;;;;;;;4.68;71.03;100349.69;5024047;28;20037;-84
2020/12/08 04:44:13;;;;;;;80.35;35.28;;;;;;;4.69;70.94;100354.94;5023434;28;20033;-85
2020/12/08 04:46:40;;;;;;;82.75;37.20;;;;;;;4.69;70.92;100354.06;5024576;28;20435;-86
2020/12/08 04:49:07;;;;;;;81.38;34.53;;;;;;;4.70;70.35;100367.19;5025603;28;20076;-85
2020/12/08 04:51:38;;;;;;;78.45;34.85;;;;;;;4.70;70.59;100371.56;5038438;28;20034;-86
2020/12/08 04:54:05;;;;;;;82.97;36.65;;;;;;;4.70;70.81;100371.56;5023813;28;20026;-87
2020/12/08 04:56:33;;;;;;;71.32;33.40;;;;;;;4.72;71.00;100367.16;5025176;28;20109;-85
2020/12/08 04:58:59;;;;;;;90.93;37.28;;;;;;;4.72;71.01;100364.53;5021813;28;20068;-84
2020/12/08 05:01:28;;;;;;;81.60;34.40;;;;;;;4.73;70.96;100371.53;5023488;28;20037;-86
2020/12/08 05:03:57;;;;;;;80.93;34.78;;;;;;;4.76;71.02;100371.56;5022253;28;20030;-84
2020/12/08 05:06:24;;;;;;;69.68;32.85;;;;;;;4.70;70.86;100377.69;5024237;28;20030;-86
2020/12/08 05:09:07;;;;;;;74.68;33.78;;;;;;;4.74;70.32;100378.53;5022636;28;20417;-84
2020/12/08 05:11:36;;;;;;;81.45;35.70;;;;;;;4.69;70.72;100386.41;5019647;28;20448;-89
2020/12/08 05:14:04;;;;;;;68.57;31.98;;;;;;;4.65;70.71;100379.44;5030064;28;20044;-84
2020/12/08 05:16:32;;;;;;;71.40;32.67;;;;;;;4.66;70.69;100382.94;5027830;28;20041;-85
2020/12/08 05:19:14;;;;;;;81.95;35.03;;;;;;;4.73;70.78;100389.91;5023994;28;20472;-85
2020/12/08 05:21:49;;;;;;;70.00;32.08;;;;;;;4.70;70.72;100382.06;5023069;28;20032;-86
2020/12/08 05:24:32;;;;;;;71.05;32.55;;;;;;;4.68;70.47;100381.19;5031512;28;20079;-86
2020/12/08 05:29:40;;;;;;;67.22;33.20;;;;;;;4.65;70.91;100389.09;5056325;28;20373;-89
2020/12/08 05:35:07;;;;;;;71.15;33.90;;;;;;;4.63;70.12;100396.06;5089808;27;20375;-86
2020/12/08 05:37:36;;;;;;;69.43;32.38;;;;;;;4.58;70.63;100395.22;5069510;28;20063;-85
2020/12/08 05:40:06;;;;;;;77.13;32.30;;;;;;;4.54;70.33;100387.34;5054791;28;20025;-85
2020/12/08 05:42:34;;;;;;;72.45;32.50;;;;;;;4.50;70.39;100395.25;5050943;28;20029;-84
2020/12/08 05:45:00;;;;;;;68.90;30.63;;;;;;;4.47;70.70;100396.09;5050977;28;20128;-84
2020/12/08 05:47:26;;;;;;;71.32;31.27;;;;;;;4.45;70.34;100403.13;5051047;28;20083;-84
2020/12/08 05:50:00;;;;;;;70.28;32.60;;;;;;;4.45;70.30;100403.13;5050781;28;20062;-84
2020/12/08 05:52:33;;;;;;;70.82;31.55;;;;;;;4.47;70.76;100401.34;5050890;28;20528;-85
2020/12/08 05:57:47;;;;;;;59.75;28.00;;;;;;;4.45;70.90;100405.75;5060908;27;20170;-84
2020/12/08 06:00:25;;;;;;;61.00;28.80;;;;;;;4.48;70.20;100403.09;5069975;28;20036;-84
2020/12/08 06:02:55;;;;;;;55.60;26.88;;;;;;;4.40;70.35;100404.88;5070760;28;20029;-85
2020/12/08 06:05:36;;;;;;;51.10;26.80;;;;;;;4.37;69.90;100410.13;5058370;28;20469;-86
2020/12/08 06:08:24;;;;;;;48.80;24.42;;;;;;;4.27;69.73;100406.63;5050936;28;20037;-83
2020/12/08 06:10:55;;;;;;;43.33;22.55;;;;;;;4.08;69.23;100403.16;5050427;28;20033;-83
2020/12/08 06:16:21;;;;;;;54.60;26.75;;;;;;;3.92;68.72;100406.66;5090868;28;20427;-85
2020/12/08 06:18:49;;;;;;;44.80;23.40;;;;;;;3.76;68.55;100411.88;5086163;28;20033;-85
2020/12/08 06:24:03;;;;;;;41.25;22.25;;;;;;;3.59;68.38;100406.63;5074749;27;20462;-84
2020/12/08 06:26:37;;;;;;;48.75;23.50;;;;;;;3.54;68.91;100416.25;5071767;28;20534;-89
2020/12/08 06:29:11;;;;;;;47.60;22.67;;;;;;;3.49;68.80;100405.75;5064082;28;20029;-86
2020/12/08 06:31:46;;;;;;;49.78;23.70;;;;;;;3.45;68.29;100421.44;5054952;28;20060;-84
2020/12/08 06:34:25;;;;;;;43.28;21.17;;;;;;;3.36;68.57;100423.16;5056117;28;20067;-84
2020/12/08 06:36:53;;;;;;;42.53;21.25;;;;;;;3.24;68.45;100424.00;5054590;28;20037;-83
2020/12/08 06:39:20;;;;;;;40.38;20.55;;;;;;;3.18;68.75;100423.97;5039317;28;20041;-83
2020/12/08 06:41:47;;;;;;;41.13;21.10;;;;;;;3.13;68.61;100424.81;5046154;28;20053;-85
2020/12/08 06:44:17;;;;;;;37.15;20.15;;;;;;;3.09;68.76;100429.19;5051092;28;20535;-83
2020/12/08 06:46:59;;;;;;;41.88;21.70;;;;;;;3.12;68.71;100426.56;5049765;28;20021;-84
2020/12/08 06:49:36;;;;;;;34.08;18.05;;;;;;;3.01;68.50;100441.38;5049754;28;20090;-85
2020/12/08 06:52:03;;;;;;;43.42;21.38;;;;;;;2.96;68.70;100433.47;5049871;28;20029;-83
2020/12/08 06:54:31;;;;;;;42.75;20.77;;;;;;;2.90;68.63;100434.34;5047396;28;20496;-84
2020/12/08 06:57:01;;;;;;;41.33;19.55;;;;;;;2.89;68.92;100435.22;5049832;28;20045;-83
2020/12/08 06:59:28;;;;;;;43.35;18.90;;;;;;;2.83;68.59;100437.78;5045677;28;20033;-86
2020/12/08 07:01:56;;;;;;;40.10;19.60;;;;;;;2.78;68.52;100436.91;5045234;28;20033;-84
2020/12/08 07:04:25;;;;;;;38.10;20.30;;;;;;;2.75;68.56;100440.38;5050263;28;20091;-87
2020/12/08 07:06:53;;;;;;;35.90;18.58;;;;;;;2.74;68.67;100442.97;5050829;28;20032;-84
2020/12/08 07:09:21;;;;;;;38.72;19.10;;;;;;;2.70;68.77;100449.06;5046483;28;20037;-85
2020/12/08 07:11:58;;;;;;;31.90;16.33;;;;;;;2.67;68.78;100451.66;5049959;28;20040;-86
2020/12/08 07:14:29;;;;;;;39.38;18.73;;;;;;;2.68;69.00;100458.63;5044942;28;20026;-84
2020/12/08 07:16:55;;;;;;;36.30;19.90;;;;;;;2.66;69.07;100460.38;5038350;28;20037;-84
2020/12/08 07:19:22;;;;;;;38.03;18.80;;;;;;;2.65;69.32;100456.84;5047795;28;20041;-84
2020/12/08 07:22:08;;;;;;;39.63;20.08;;;;;;;2.74;69.08;100469.13;5049444;28;20048;-86
2020/12/08 07:24:42;;;;;;;37.55;18.83;;;;;;;2.66;69.59;100471.69;5049934;28;20025;-86
2020/12/08 07:27:11;;;;;;;41.78;19.85;;;;;;;2.68;69.81;100469.09;5049511;28;20037;-85
2020/12/08 07:29:39;;;;;;;38.85;19.08;;;;;;;2.71;69.92;100474.34;5049533;28;20040;-83
2020/12/08 07:32:06;;;;;;;33.85;19.00;;;;;;;2.72;70.21;100470.88;5049533;28;20079;-88
2020/12/08 07:34:32;;;;;;;30.67;16.13;;;;;;;2.77;70.05;100474.38;5024638;28;20026;-95
2020/12/08 07:36:59;;;;;;;43.25;21.63;;;;;;;2.81;70.29;100472.66;5029161;28;20111;-94
2020/12/08 07:39:29;;;;;;;35.28;18.17;;;;;;;2.88;70.32;100483.16;5035385;28;20127;-86
2020/12/08 07:42:04;;;;;;;36.28;19.20;;;;;;;2.91;70.75;100484.94;5032814;28;20033;-94
2020/12/08 07:44:32;;;;;;;41.75;21.35;;;;;;;2.90;70.39;100481.44;5033696;28;20040;-88
2020/12/08 07:46:59;;;;;;;41.50;20.52;;;;;;;2.89;70.45;100484.03;5035184;28;20049;-89
2020/12/08 07:49:25;;;;;;;35.85;18.67;;;;;;;2.90;70.07;100488.41;5034475;28;20555;-87
2020/12/08 07:51:51;;;;;;;39.42;19.48;;;;;;;2.88;70.11;100491.03;5036635;28;20071;-84
2020/12/08 07:54:18;;;;;;;38.58;19.63;;;;;;;2.89;69.90;100499.72;5040670;28;20480;-84
2020/12/08 07:56:45;;;;;;;38.05;20.08;;;;;;;2.87;69.71;100497.13;5040785;28;20167;-84
2020/12/08 07:59:11;;;;;;;35.35;19.05;;;;;;;2.85;69.76;100501.47;5034286;28;20014;-83
2020/12/08 08:01:40;;;;;;;43.42;21.50;;;;;;;2.85;69.67;100498.84;5034649;28;20040;-83
2020/12/08 08:04:08;;;;;;;34.88;19.98;;;;;;;2.85;69.91;100497.97;5034224;28;20548;-83
2020/12/08 08:06:38;;;;;;;44.97;20.80;;;;;;;2.86;69.82;100502.34;5034220;28;20041;-83
2020/12/08 08:09:06;;;;;;;46.67;21.10;;;;;;;2.83;69.79;100505.81;5029457;28;20138;-89
2020/12/08 08:11:33;;;;;;;37.33;18.35;;;;;;;2.83;69.96;100500.59;5036221;28;20476;-86
2020/12/08 08:14:00;;;;;;;38.80;20.45;;;;;;;2.83;69.79;100495.34;5035377;28;20025;-85
2020/12/08 08:16:27;;;;;;;39.22;18.67;;;;;;;2.85;69.96;100508.44;5035543;28;20030;-84
2020/12/08 08:18:53;;;;;;;36.15;18.95;;;;;;;2.85;69.92;100503.22;5035427;28;20030;-85
2020/12/08 08:21:19;;;;;;;35.58;20.27;;;;;;;2.87;69.99;100512.81;5035165;28;20025;-87
2020/12/08 08:23:47;;;;;;;33.58;19.58;;;;;;;2.90;70.23;100512.84;5034525;28;20053;-86
2020/12/08 08:26:14;;;;;;;39.92;20.23;;;;;;;2.93;70.47;100514.59;5034523;28;20432;-84
2020/12/08 08:28:41;;;;;;;34.55;19.75;;;;;;;2.99;70.55;100519.88;5032123;28;20049;-84
2020/12/08 08:31:08;;;;;;;34.20;18.67;;;;;;;3.02;70.44;100519.03;5031201;28;20113;-82
2020/12/08 08:33:34;;;;;;;38.55;19.60;;;;;;;3.06;70.89;100528.63;5033711;28;20055;-85
2020/12/08 08:36:01;;;;;;;40.15;20.67;;;;;;;3.11;70.70;100529.53;5034999;28;20041;-86
2020/12/08 08:38:27;;;;;;;37.38;21.17;;;;;;;3.18;71.07;100527.84;5032778;28;20439;-86
2020/12/08 08:40:59;;;;;;;40.38;20.40;;;;;;;3.31;71.53;100529.63;5030818;28;20076;-87
2020/12/08 08:43:26;;;;;;;40.33;21.77;;;;;;;3.33;71.64;100522.66;5034601;28;20045;-88
2020/12/08 08:45:53;;;;;;;41.05;21.40;;;;;;;3.41;71.60;100520.06;5032152;28;20033;-89
2020/12/08 08:48:20;;;;;;;48.63;23.40;;;;;;;3.49;71.86;100513.13;5033969;28;20033;-90
2020/12/08 08:50:47;;;;;;;50.28;24.13;;;;;;;3.58;72.19;100516.63;5036020;28;20040;-85
2020/12/08 08:53:13;;;;;;;43.22;23.25;;;;;;;3.65;72.06;100518.41;5037234;28;20092;-91
2020/12/08 08:55:40;;;;;;;57.25;28.20;;;;;;;3.71;72.21;100523.66;5045054;28;20030;-93
2020/12/08 08:58:07;;;;;;;97.80;43.67;;;;;;;3.79;72.35;100521.97;5045774;28;20040;-94
2020/12/08 09:00:33;;;;;;;50.67;24.88;;;;;;;3.86;72.43;100517.59;5028631;28;20029;-88
2020/12/08 09:02:59;;;;;;;42.45;23.05;;;;;;;3.91;72.05;100528.09;5015768;28;20161;-84
2020/12/08 09:05:26;;;;;;;43.20;23.85;;;;;;;3.97;72.21;100533.34;5025481;28;20025;-83
2020/12/08 09:07:53;;;;;;;45.05;23.75;;;;;;;4.01;72.29;100524.63;5033519;28;20421;-86
2020/12/08 09:10:20;;;;;;;52.42;23.02;;;;;;;4.06;72.25;100525.50;5029622;28;20056;-89
2020/12/08 09:12:46;;;;;;;41.60;21.73;;;;;;;4.08;71.89;100526.38;5035820;28;20045;-92
2020/12/08 09:15:12;;;;;;;48.53;25.20;;;;;;;4.12;72.43;100530.75;5033486;28;20037;-83
2020/12/08 09:17:41;;;;;;;49.53;24.20;;;;;;;4.18;72.17;100538.63;5032122;28;20043;-91
2020/12/08 09:20:09;;;;;;;43.13;23.23;;;;;;;4.16;72.00;100534.25;5025176;28;20084;-90
2020/12/08 09:22:35;;;;;;;38.90;22.27;;;;;;;4.19;71.35;100542.13;5032710;28;20075;-91
2020/12/08 09:25:01;;;;;;;46.00;21.67;;;;;;;4.24;71.60;100535.16;5030884;28;20053;-89
2020/12/08 09:27:27;;;;;;;46.20;23.00;;;;;;;4.27;71.59;100536.91;5030881;28;20057;-92
2020/12/08 09:29:54;;;;;;;58.40;31.77;;;;;;;4.30;71.55;100529.00;5030972;28;20053;-92
2020/12/08 09:32:20;;;;;;;78.25;37.80;;;;;;;4.35;72.01;100536.03;5032757;28;20456;-89
2020/12/08 09:34:46;;;;;;;48.63;25.35;;;;;;;4.40;71.50;100524.66;5029555;28;20025;-90
2020/12/08 09:37:12;;;;;;;49.30;26.38;;;;;;;4.48;71.34;100533.41;5031515;28;20099;-92
2020/12/08 09:39:38;;;;;;;43.28;23.92;;;;;;;4.59;71.58;100541.28;5032995;28;20027;-93
2020/12/08 09:42:05;;;;;;;50.65;23.90;;;;;;;4.67;71.81;100539.50;5041529;28;20029;-95
2020/12/08 09:44:31;;;;;;;46.20;23.88;;;;;;;4.76;71.37;100531.66;5040391;28;20033;-96
2020/12/08 09:46:58;;;;;;;52.58;25.83;;;;;;;4.84;71.79;100529.00;5039867;28;20033;-94
2020/12/08 09:49:24;;;;;;;44.47;23.60;;;;;;;4.92;71.46;100529.88;5036947;28;20034;-87
2020/12/08 09:51:51;;;;;;;40.03;22.23;;;;;;;5.00;71.53;100532.50;5031850;28;20108;-90
2020/12/08 09:54:17;;;;;;;41.83;23.02;;;;;;;5.09;71.43;100531.59;5032512;28;20060;-88
2020/12/08 09:56:47;;;;;;;45.20;24.40;;;;;;;5.23;71.56;100534.19;5030896;28;20041;-84
2020/12/08 09:59:14;;;;;;;45.05;23.90;;;;;;;5.28;71.58;100532.41;5032483;28;20044;-86
2020/12/08 10:01:40;;;;;;;38.90;22.30;;;;;;;5.35;71.42;100535.00;5032433;28;20385;-81
2020/12/08 10:04:07;;;;;;;42.92;23.55;;;;;;;5.40;71.50;100548.13;5025923;28;20095;-85
2020/12/08 10:06:33;;;;;;;41.42;23.90;;;;;;;5.49;71.51;100547.22;5031153;28;20460;-84
2020/12/08 10:09:00;;;;;;;36.38;22.25;;;;;;;5.55;71.28;100536.69;5031373;28;20465;-86
2020/12/08 10:11:26;;;;;;;35.35;21.02;;;;;;;5.60;71.52;100541.94;5031885;28;20037;-85
2020/12/08 10:13:53;;;;;;;37.53;22.83;;;;;;;5.65;71.53;100542.78;5032119;28;20432;-84
2020/12/08 10:16:21;;;;;;;41.25;23.92;;;;;;;5.69;71.50;100538.38;5032084;28;20030;-82
2020/12/08 10:18:49;;;;;;;41.97;23.98;;;;;;;5.75;71.67;100541.84;5021982;28;20038;-86
2020/12/08 10:21:19;;;;;;;41.38;23.98;;;;;;;5.83;71.43;100544.44;5029845;28;20026;-84
2020/12/08 10:23:45;;;;;;;39.05;24.27;;;;;;;5.86;71.53;100540.91;5028668;28;20488;-84
2020/12/08 10:26:11;;;;;;;42.45;24.45;;;;;;;5.95;71.41;100540.88;5028945;28;20104;-85
2020/12/08 10:28:38;;;;;;;44.20;25.02;;;;;;;5.99;71.33;100540.00;5031133;28;20042;-85
2020/12/08 10:31:04;;;;;;;58.75;31.15;;;;;;;6.07;71.41;100540.84;5033075;28;20043;-85
2020/12/08 10:33:30;;;;;;;87.35;46.17;;;;;;;6.11;71.35;100542.53;5032734;28;20021;-84
2020/12/08 10:35:56;;;;;;;49.58;27.17;;;;;;;6.17;71.21;100543.38;5033191;28;20037;-85
2020/12/08 10:38:24;;;;;;;49.53;28.10;;;;;;;6.25;71.29;100533.69;5032703;28;20381;-86
2020/12/08 10:40:51;;;;;;;44.65;25.73;;;;;;;6.32;71.25;100541.53;5032689;28;20025;-84
2020/12/08 10:43:19;;;;;;;50.10;26.90;;;;;;;6.38;71.11;100538.00;5032534;28;20045;-83
2020/12/08 10:45:45;;;;;;;48.53;25.63;;;;;;;6.46;71.20;100544.03;5032552;28;20041;-81
2020/12/08 10:48:12;;;;;;;37.83;23.58;;;;;;;6.53;71.21;100544.00;5031804;28;20026;-82
2020/12/08 10:50:38;;;;;;;43.08;25.92;;;;;;;6.56;71.46;100538.72;5028946;28;20030;-82
2020/12/08 10:53:06;;;;;;;45.22;24.30;;;;;;;6.64;70.86;100547.41;5031266;28;20098;-84
2020/12/08 10:55:32;;;;;;;46.05;26.17;;;;;;;6.72;71.15;100540.34;5032428;28;20394;-83
2020/12/08 10:57:58;;;;;;;42.13;24.27;;;;;;;6.75;70.95;100534.16;5032501;28;20112;-82
2020/12/08 11:00:26;;;;;;;39.33;22.70;;;;;;;6.84;71.05;100533.19;5030669;28;20034;-85
2020/12/08 11:02:52;;;;;;;41.20;25.00;;;;;;;6.84;71.11;100541.09;5030192;28;20037;-82
2020/12/08 11:05:18;;;;;;;44.30;25.08;;;;;;;6.91;71.03;100534.91;5032192;28;20029;-82
2020/12/08 11:07:44;;;;;;;38.88;24.25;;;;;;;6.96;70.84;100538.34;5032351;28;20061;-83
2020/12/08 11:10:10;;;;;;;43.17;24.65;;;;;;;7.00;70.71;100534.78;5035120;28;20025;-83
2020/12/08 11:12:37;;;;;;;40.17;23.83;;;;;;;7.01;70.34;100533.03;5036108;28;20492;-84
2020/12/08 11:15:04;;;;;;;42.33;23.85;;;;;;;7.11;70.88;100534.69;5035958;28;20033;-84
2020/12/08 11:17:31;;;;;;;38.17;22.05;;;;;;;7.15;70.19;100535.53;5035702;28;20545;-90
2020/12/08 11:19:57;;;;;;;40.17;23.98;;;;;;;7.17;70.55;100537.25;5032954;28;20053;-86
2020/12/08 11:22:23;;;;;;;40.33;23.50;;;;;;;7.26;70.38;100534.53;5035557;28;20029;-84
2020/12/08 11:24:50;;;;;;;43.30;25.27;;;;;;;7.27;70.19;100535.41;5035436;28;20037;-83
2020/12/08 11:27:17;;;;;;;38.97;23.42;;;;;;;7.34;70.27;100539.72;5035526;28;20036;-84
2020/12/08 11:29:44;;;;;;;34.53;22.98;;;;;;;7.35;70.15;100532.66;5034677;28;20026;-84
2020/12/08 11:32:14;;;;;;;37.42;22.80;;;;;;;7.33;69.74;100540.59;5035450;28;20033;-83
2020/12/08 11:34:40;;;;;;;42.13;24.88;;;;;;;7.34;70.22;100530.91;5035416;28;20116;-84
2020/12/08 11:37:06;;;;;;;41.45;24.52;;;;;;;7.34;70.18;100538.81;5035588;28;20037;-83
2020/12/08 11:39:33;;;;;;;37.00;23.73;;;;;;;7.36;69.75;100540.53;5035589;28;20432;-83
2020/12/08 11:42:00;;;;;;;42.60;25.25;;;;;;;7.39;70.08;100537.00;5035406;28;20037;-82
2020/12/08 11:44:26;;;;;;;42.20;24.23;;;;;;;7.43;69.54;100533.47;5035211;28;20021;-84
2020/12/08 11:46:53;;;;;;;40.47;24.17;;;;;;;7.50;69.87;100550.06;5035441;28;20499;-84